createdAt,value
2018-03-18T00:00:43.746Z,16.62
2018-03-18T00:03:09.810Z,17.05
2018-03-18T00:05:35.901Z,15.98
2018-03-18T00:08:01.945Z,16.65
2018-03-18T00:10:28.765Z,15.48
2018-03-18T00:12:54.838Z,17.55
2018-03-18T00:15:21.657Z,17.27
2018-03-18T00:17:47.726Z,16.02
2018-03-18T00:20:13.866Z,17.20
2018-03-18T00:22:40.686Z,17.70
2018-03-18T00:25:06.771Z,17.45
2018-03-18T00:27:33.593Z,17.58
2018-03-18T00:29:59.658Z,18.45
2018-03-18T00:32:26.510Z,17.25
2018-03-18T00:34:53.398Z,16.55
2018-03-18T00:37:19.493Z,18.20
2018-03-18T00:39:45.618Z,17.20
2018-03-18T00:42:11.734Z,16.87
2018-03-18T00:44:37.830Z,15.73
2018-03-18T00:47:04.634Z,17.73
2018-03-18T00:49:30.726Z,18.55
2018-03-18T00:51:59.885Z,16.60
2018-03-18T00:54:25.954Z,18.10
2018-03-18T00:56:52.035Z,17.05
2018-03-18T00:59:18.090Z,14.95
2018-03-18T01:01:44.197Z,17.23
2018-03-18T01:04:10.277Z,16.40
2018-03-18T01:06:36.337Z,16.75
2018-03-18T01:09:02.546Z,16.77
2018-03-18T01:11:28.626Z,17.52
2018-03-18T01:13:55.441Z,17.90
2018-03-18T01:16:21.514Z,15.48
2018-03-18T01:18:48.334Z,15.65
2018-03-18T01:21:14.417Z,14.75
2018-03-18T01:23:41.206Z,17.40
2018-03-18T01:26:07.306Z,16.12
2018-03-18T01:28:34.108Z,16.33
2018-03-18T01:31:00.229Z,15.93
2018-03-18T01:33:26.310Z,17.67
2018-03-18T01:35:52.494Z,16.62
2018-03-18T01:38:18.730Z,17.85
2018-03-18T01:40:44.868Z,17.62
2018-03-18T01:43:10.965Z,17.42
2018-03-18T01:45:37.015Z,14.98
2018-03-18T01:48:03.401Z,15.07
2018-03-18T01:50:29.527Z,16.30
2018-03-18T01:53:08.029Z,15.55
2018-03-18T01:55:34.146Z,16.48
2018-03-18T01:58:00.230Z,17.65
2018-03-18T02:00:27.060Z,17.67
2018-03-18T02:02:53.177Z,17.25
2018-03-18T02:05:19.718Z,16.80
2018-03-18T02:07:45.802Z,16.05
2018-03-18T02:10:12.634Z,15.23
2018-03-18T02:12:38.702Z,15.57
2018-03-18T02:15:05.562Z,15.73
2018-03-18T02:17:31.803Z,15.90
2018-03-18T02:19:57.934Z,17.33
2018-03-18T02:22:24.750Z,17.08
2018-03-18T02:24:50.840Z,16.42
2018-03-18T02:27:16.913Z,17.05
2018-03-18T02:29:43.482Z,15.63
2018-03-18T02:32:09.565Z,15.48
2018-03-18T02:34:35.662Z,16.40
2018-03-18T02:37:01.831Z,15.27
2018-03-18T02:39:28.671Z,15.88
2018-03-18T02:41:55.758Z,17.25
2018-03-18T02:44:21.812Z,15.85
2018-03-18T02:46:47.902Z,14.93
2018-03-18T02:49:14.721Z,16.80
2018-03-18T02:51:40.802Z,15.63
2018-03-18T02:54:07.655Z,13.73
2018-03-18T02:56:34.475Z,15.15
2018-03-18T02:59:00.582Z,16.55
2018-03-18T03:01:26.674Z,15.88
2018-03-18T03:03:52.714Z,16.55
2018-03-18T03:06:19.669Z,14.75
2018-03-18T03:08:45.845Z,13.25
2018-03-18T03:11:11.917Z,15.27
2018-03-18T03:13:38.032Z,14.18
2018-03-18T03:16:04.118Z,13.50
2018-03-18T03:18:30.172Z,16.20
2018-03-18T03:20:56.255Z,16.15
2018-03-18T03:23:22.330Z,16.02
2018-03-18T03:25:48.505Z,15.68
2018-03-18T03:28:14.831Z,14.95
2018-03-18T03:30:41.711Z,14.48
2018-03-18T03:33:07.918Z,16.05
2018-03-18T03:35:34.086Z,15.32
2018-03-18T03:38:00.234Z,14.40
2018-03-18T03:40:26.322Z,15.52
2018-03-18T03:42:52.510Z,17.12
2018-03-18T03:45:18.955Z,16.15
2018-03-18T03:47:45.045Z,15.13
2018-03-18T03:50:11.093Z,15.63
2018-03-18T03:52:37.234Z,16.45
2018-03-18T03:55:03.310Z,14.70
2018-03-18T03:57:29.346Z,15.18
2018-03-18T03:59:55.634Z,18.45
2018-03-18T04:02:21.697Z,13.70
2018-03-18T04:04:48.514Z,16.02
2018-03-18T04:07:14.566Z,14.70
2018-03-18T04:09:40.644Z,16.73
2018-03-18T04:12:06.710Z,14.15
2018-03-18T04:14:32.795Z,14.82
2018-03-18T04:16:59.590Z,14.45
2018-03-18T04:19:25.642Z,15.65
2018-03-18T04:21:51.762Z,16.75
2018-03-18T04:24:17.855Z,13.73
2018-03-18T04:26:43.910Z,14.30
2018-03-18T04:29:10.734Z,13.93
2018-03-18T04:31:36.813Z,14.25
2018-03-18T04:34:02.926Z,14.07
2018-03-18T04:36:29.725Z,13.25
2018-03-18T04:38:55.841Z,14.02
2018-03-18T04:41:22.654Z,14.87
2018-03-18T04:43:48.709Z,14.00
2018-03-18T04:46:14.807Z,14.13
2018-03-18T04:48:40.902Z,15.43
2018-03-18T04:51:07.694Z,14.50
2018-03-18T04:53:33.765Z,14.90
2018-03-18T04:55:59.850Z,13.98
2018-03-18T04:58:25.929Z,14.20
2018-03-18T05:00:52.011Z,13.82
2018-03-18T05:03:18.878Z,14.75
2018-03-18T05:05:44.983Z,11.60
2018-03-18T05:08:11.050Z,14.23
2018-03-18T05:10:37.142Z,13.88
2018-03-18T05:13:03.206Z,14.40
2018-03-18T05:15:30.014Z,13.02
2018-03-18T05:17:56.106Z,15.10
2018-03-18T05:20:22.914Z,14.63
2018-03-18T05:22:49.003Z,14.57
2018-03-18T05:25:15.794Z,13.35
2018-03-18T05:27:41.902Z,14.82
2018-03-18T05:30:08.695Z,13.70
2018-03-18T05:32:34.790Z,13.48
2018-03-18T05:35:01.577Z,11.88
2018-03-18T05:37:27.667Z,14.65
2018-03-18T05:39:53.723Z,11.43
2018-03-18T05:42:20.525Z,13.80
2018-03-18T05:44:46.578Z,12.57
2018-03-18T05:47:12.641Z,11.95
2018-03-18T05:49:38.721Z,13.48
2018-03-18T05:52:04.822Z,12.50
2018-03-18T05:54:30.898Z,15.93
2018-03-18T05:56:56.980Z,11.15
2018-03-18T05:59:23.057Z,11.18
2018-03-18T06:01:49.126Z,13.52
2018-03-18T06:04:15.209Z,13.43
2018-03-18T06:06:42.050Z,14.00
2018-03-18T06:09:08.113Z,14.73
2018-03-18T06:11:34.190Z,13.00
2018-03-18T06:14:00.309Z,15.18
2018-03-18T06:16:26.417Z,13.32
2018-03-18T06:18:53.411Z,13.75
2018-03-18T06:21:19.474Z,12.60
2018-03-18T06:23:45.545Z,15.00
2018-03-18T06:26:12.430Z,14.52
2018-03-18T06:28:38.505Z,12.48
2018-03-18T06:31:04.563Z,12.60
2018-03-18T06:33:30.655Z,13.68
2018-03-18T06:35:56.710Z,15.25
2018-03-18T06:38:22.802Z,12.88
2018-03-18T06:40:49.658Z,13.57
2018-03-18T06:43:15.758Z,14.02
2018-03-18T06:45:41.842Z,12.60
2018-03-18T06:48:07.906Z,12.50
2018-03-18T06:50:34.011Z,11.25
2018-03-18T06:53:00.066Z,12.63
2018-03-18T06:55:26.150Z,13.00
2018-03-18T06:57:52.246Z,10.45
2018-03-18T07:00:18.347Z,12.90
2018-03-18T07:02:44.415Z,12.45
2018-03-18T07:05:10.463Z,12.77
2018-03-18T07:07:36.553Z,12.07
2018-03-18T07:10:03.351Z,11.05
2018-03-18T07:12:29.425Z,11.10
2018-03-18T07:14:55.503Z,12.35
2018-03-18T07:17:21.557Z,11.18
2018-03-18T07:19:47.681Z,9.25
2018-03-18T07:22:13.854Z,10.65
2018-03-18T07:24:39.927Z,12.90
2018-03-18T07:27:05.977Z,11.38
2018-03-18T07:29:32.805Z,13.32
2018-03-18T07:31:58.898Z,13.00
2018-03-18T07:34:24.946Z,12.43
2018-03-18T07:36:51.044Z,13.02
2018-03-18T07:39:17.839Z,14.50
2018-03-18T07:41:43.938Z,11.50
2018-03-18T07:44:10.838Z,13.57
2018-03-18T07:46:36.883Z,12.98
2018-03-18T07:49:02.965Z,12.40
2018-03-18T07:51:29.781Z,13.88
2018-03-18T07:53:55.862Z,12.18
2018-03-18T07:56:22.698Z,13.88
2018-03-18T07:58:48.850Z,10.35
2018-03-18T08:01:15.685Z,11.73
2018-03-18T08:03:41.770Z,12.23
2018-03-18T08:06:07.810Z,13.07
2018-03-18T08:08:33.906Z,12.27
2018-03-18T08:11:00.091Z,12.60
2018-03-18T08:13:26.151Z,12.48
2018-03-18T08:15:52.230Z,13.85
2018-03-18T08:18:19.029Z,12.95
2018-03-18T08:20:45.118Z,12.80
2018-03-18T08:23:11.166Z,12.48
2018-03-18T08:25:37.954Z,12.82
2018-03-18T08:28:04.041Z,12.73
2018-03-18T08:30:30.094Z,16.90
2018-03-18T08:32:56.958Z,13.93
2018-03-18T08:35:23.753Z,15.80
2018-03-18T08:37:49.798Z,17.70
2018-03-18T08:40:15.880Z,14.77
2018-03-18T08:42:42.673Z,11.88
2018-03-18T08:45:08.718Z,12.85
2018-03-18T08:47:34.789Z,12.00
2018-03-18T08:50:00.846Z,13.25
2018-03-18T08:52:27.662Z,11.12
2018-03-18T08:54:53.710Z,11.85
2018-03-18T08:57:19.790Z,11.15
2018-03-18T08:59:45.850Z,11.40
2018-03-18T09:02:11.969Z,13.30
2018-03-18T09:04:38.010Z,11.85
2018-03-18T09:07:04.063Z,12.63
2018-03-18T09:09:30.147Z,12.55
2018-03-18T09:11:56.346Z,11.43
2018-03-18T09:14:22.417Z,13.07
2018-03-18T09:16:48.498Z,12.98
2018-03-18T09:19:14.578Z,13.38
2018-03-18T09:21:40.634Z,11.95
2018-03-18T09:24:07.422Z,12.70
2018-03-18T09:26:33.492Z,10.68
2018-03-18T09:28:59.623Z,11.30
2018-03-18T09:31:25.713Z,14.43
2018-03-18T09:33:52.641Z,12.35
2018-03-18T09:36:18.870Z,11.75
2018-03-18T09:38:45.114Z,15.38
2018-03-18T09:41:11.233Z,12.73
2018-03-18T09:43:37.389Z,12.37
2018-03-18T09:46:03.574Z,11.88
2018-03-18T09:48:30.597Z,12.20
2018-03-18T09:50:56.757Z,13.38
2018-03-18T09:53:23.094Z,13.07
2018-03-18T09:55:49.765Z,11.60
2018-03-18T09:58:15.962Z,12.63
2018-03-18T10:00:42.194Z,12.32
2018-03-18T10:03:08.422Z,12.40
2018-03-18T10:05:34.537Z,12.95
2018-03-18T10:08:00.693Z,13.50
2018-03-18T10:10:27.238Z,13.85
2018-03-18T10:12:53.350Z,13.07
2018-03-18T10:15:20.284Z,13.15
2018-03-18T10:17:46.357Z,11.50
2018-03-18T10:20:12.416Z,14.20
2018-03-18T10:22:39.258Z,11.48
2018-03-18T10:25:05.322Z,12.80
2018-03-18T10:27:31.398Z,13.25
2018-03-18T10:29:57.630Z,13.52
2018-03-18T10:32:23.739Z,13.25
2018-03-18T10:34:49.839Z,12.85
2018-03-18T10:37:15.964Z,13.45
2018-03-18T10:39:42.937Z,14.77
2018-03-18T10:42:09.815Z,12.45
2018-03-18T10:44:36.723Z,12.70
2018-03-18T10:47:02.873Z,12.10
2018-03-18T10:49:29.715Z,13.20
2018-03-18T10:51:55.765Z,14.27
2018-03-18T10:54:22.589Z,14.38
2018-03-18T10:56:48.638Z,13.60
2018-03-18T10:59:14.692Z,11.65
2018-03-18T11:01:47.550Z,13.55
2018-03-18T11:04:16.577Z,11.45
2018-03-18T11:06:42.678Z,11.60
2018-03-18T11:09:08.726Z,11.35
2018-03-18T11:11:34.826Z,12.50
2018-03-18T11:14:00.953Z,12.37
2018-03-18T11:16:27.798Z,12.50
2018-03-18T11:18:54.651Z,11.95
2018-03-18T11:21:20.722Z,11.32
2018-03-18T11:23:46.900Z,10.75
2018-03-18T11:26:12.938Z,12.60
2018-03-18T11:28:39.153Z,13.70
2018-03-18T11:31:05.251Z,11.63
2018-03-18T11:33:32.126Z,12.57
2018-03-18T11:35:58.282Z,12.98
2018-03-18T11:38:24.642Z,12.57
2018-03-18T11:40:51.270Z,12.88
2018-03-18T11:43:17.439Z,11.70
2018-03-18T11:45:43.531Z,14.40
2018-03-18T11:48:09.598Z,12.80
2018-03-18T11:50:35.682Z,10.85
2018-03-18T11:53:01.884Z,9.90
2018-03-18T11:55:27.977Z,12.15
2018-03-18T11:57:54.994Z,10.40
2018-03-18T12:00:21.087Z,11.55
2018-03-18T12:02:47.202Z,11.65
2018-03-18T12:05:14.083Z,11.27
2018-03-18T12:07:40.536Z,11.68
2018-03-18T12:10:06.685Z,11.73
2018-03-18T12:12:32.758Z,11.05
2018-03-18T12:14:58.871Z,10.88
2018-03-18T12:17:25.243Z,11.15
2018-03-18T12:19:51.446Z,13.80
2018-03-18T12:22:17.554Z,11.02
2018-03-18T12:24:44.450Z,11.30
2018-03-18T12:27:10.547Z,13.20
2018-03-18T12:29:37.518Z,10.98
2018-03-18T12:32:03.682Z,10.77
2018-03-18T12:34:29.792Z,12.27
2018-03-18T12:36:56.681Z,15.30
2018-03-18T12:39:22.901Z,13.23
2018-03-18T12:41:48.959Z,12.60
2018-03-18T12:44:15.046Z,13.40
2018-03-18T12:46:41.874Z,13.23
2018-03-18T12:49:07.970Z,10.70
2018-03-18T12:51:34.037Z,11.48
2018-03-18T12:54:00.390Z,11.38
2018-03-18T12:56:26.479Z,11.77
2018-03-18T12:58:52.770Z,12.52
2018-03-18T13:01:18.865Z,12.50
2018-03-18T13:03:44.916Z,11.30
2018-03-18T13:06:11.227Z,12.93
2018-03-18T13:08:38.933Z,12.02
2018-03-18T13:11:04.994Z,10.85
2018-03-18T13:13:31.083Z,11.07
2018-03-18T13:15:57.971Z,10.85
2018-03-18T13:18:24.218Z,10.10
2018-03-18T13:20:50.564Z,10.63
2018-03-18T13:23:16.653Z,10.40
2018-03-18T13:25:43.543Z,10.27
2018-03-18T13:28:09.638Z,11.25
2018-03-18T13:30:36.468Z,10.93
2018-03-18T13:33:02.631Z,9.95
2018-03-18T13:35:28.724Z,10.13
2018-03-18T13:37:54.827Z,10.73
2018-03-18T13:40:20.944Z,11.63
2018-03-18T13:42:48.063Z,11.73
2018-03-18T13:45:14.309Z,11.02
2018-03-18T13:47:40.704Z,12.10
2018-03-18T13:50:06.803Z,11.07
2018-03-18T13:52:32.894Z,10.50
2018-03-18T13:54:58.963Z,10.77
2018-03-18T13:57:25.071Z,11.73
2018-03-18T13:59:51.158Z,10.95
2018-03-18T14:02:17.265Z,12.57
2018-03-18T14:04:43.356Z,12.00
2018-03-18T14:07:10.149Z,10.93
2018-03-18T14:09:36.230Z,10.00
2018-03-18T14:12:02.300Z,10.40
2018-03-18T14:14:29.124Z,11.38
2018-03-18T14:16:55.206Z,9.38
2018-03-18T14:19:21.504Z,10.57
2018-03-18T14:21:47.710Z,10.13
2018-03-18T14:24:14.038Z,10.50
2018-03-18T14:26:40.178Z,12.25
2018-03-18T14:29:06.633Z,9.70
2018-03-18T14:31:32.721Z,10.15
2018-03-18T14:33:59.529Z,10.45
2018-03-18T14:36:25.645Z,12.50
2018-03-18T14:38:51.726Z,13.10
2018-03-18T14:41:20.076Z,11.48
2018-03-18T14:43:48.705Z,12.07
2018-03-18T14:46:15.747Z,12.05
2018-03-18T14:48:41.849Z,12.15
2018-03-18T14:51:08.674Z,12.65
2018-03-18T14:53:34.785Z,10.88
2018-03-18T14:56:00.916Z,11.85
2018-03-18T14:58:26.997Z,12.15
2018-03-18T15:00:53.178Z,12.77
2018-03-18T15:03:19.247Z,11.88
2018-03-18T15:05:45.354Z,10.35
2018-03-18T15:08:11.501Z,12.55
2018-03-18T15:10:37.625Z,12.05
2018-03-18T15:13:03.781Z,10.68
2018-03-18T15:15:29.923Z,13.95
2018-03-18T15:17:56.018Z,11.73
2018-03-18T15:20:22.202Z,10.38
2018-03-18T15:22:48.254Z,10.93
2018-03-18T15:25:14.370Z,11.80
2018-03-18T15:27:41.218Z,11.98
2018-03-18T15:30:07.305Z,11.73
2018-03-18T15:32:33.470Z,11.27
2018-03-18T15:34:59.627Z,11.65
2018-03-18T15:37:25.702Z,13.43
2018-03-18T15:39:51.886Z,14.48
2018-03-18T15:42:18.691Z,12.27
2018-03-18T15:44:44.758Z,13.80
2018-03-18T15:47:10.910Z,10.55
2018-03-18T15:49:37.009Z,13.65
2018-03-18T15:52:03.806Z,11.12
2018-03-18T15:54:30.658Z,11.45
2018-03-18T15:56:56.735Z,11.80
2018-03-18T15:59:22.775Z,14.52
2018-03-18T16:01:48.839Z,10.60
2018-03-18T16:04:14.898Z,10.65
2018-03-18T16:06:41.157Z,11.07
2018-03-18T16:09:08.030Z,8.80
2018-03-18T16:11:34.111Z,8.93
2018-03-18T16:14:00.187Z,10.35
2018-03-18T16:16:26.981Z,10.38
2018-03-18T16:18:53.120Z,8.85
2018-03-18T16:21:19.593Z,10.15
2018-03-18T16:23:45.909Z,9.35
2018-03-18T16:26:12.014Z,9.48
2018-03-18T16:28:38.846Z,11.65
2018-03-18T16:31:11.946Z,10.30
2018-03-18T16:33:38.015Z,9.25
2018-03-18T16:36:04.858Z,10.07
2018-03-18T16:38:31.718Z,10.20
2018-03-18T16:40:58.616Z,12.32
2018-03-18T16:43:24.690Z,12.02
2018-03-18T16:45:50.916Z,10.77
2018-03-18T16:48:17.743Z,11.93
2018-03-18T16:50:43.809Z,13.93
2018-03-18T16:53:10.264Z,11.25
2018-03-18T16:55:37.126Z,10.25
2018-03-18T16:58:03.294Z,11.70
2018-03-18T17:00:30.120Z,9.25
2018-03-18T17:02:56.314Z,11.30
2018-03-18T17:05:22.410Z,11.20
2018-03-18T17:07:48.541Z,8.75
2018-03-18T17:10:14.622Z,10.95
2018-03-18T17:12:40.723Z,10.43
2018-03-18T17:15:07.558Z,9.70
2018-03-18T17:20:18.831Z,11.43
2018-03-18T17:22:44.973Z,11.68
2018-03-18T17:25:11.150Z,9.68
2018-03-18T17:27:37.230Z,9.80
2018-03-18T17:30:03.336Z,10.55
2018-03-18T17:32:29.452Z,8.95
2018-03-18T17:34:55.542Z,9.25
2018-03-18T17:37:21.686Z,13.73
2018-03-18T17:39:47.794Z,10.10
2018-03-18T17:42:13.889Z,13.73
2018-03-18T17:44:52.482Z,16.75
2018-03-18T17:47:30.806Z,13.40
2018-03-18T17:50:14.963Z,16.98
2018-03-18T17:52:53.446Z,35.17
2018-03-18T17:55:30.744Z,22.23
2018-03-18T17:57:57.554Z,20.95
2018-03-18T18:00:24.435Z,35.75
2018-03-18T18:02:50.527Z,13.85
2018-03-18T18:05:16.654Z,14.60
2018-03-18T18:07:44.452Z,10.75
2018-03-18T18:10:11.392Z,11.07
2018-03-18T18:12:37.487Z,10.05
2018-03-18T18:15:03.619Z,9.85
2018-03-18T18:17:29.709Z,11.88
2018-03-18T18:19:55.834Z,13.52
2018-03-18T18:22:22.066Z,9.73
2018-03-18T18:24:48.162Z,11.98
2018-03-18T18:27:14.260Z,9.88
2018-03-18T18:29:40.359Z,10.32
2018-03-18T18:32:06.429Z,10.85
2018-03-18T18:34:32.524Z,9.93
2018-03-18T18:36:58.610Z,11.95
2018-03-18T18:39:24.806Z,10.18
2018-03-18T18:41:50.790Z,9.85
2018-03-18T18:44:16.995Z,10.13
2018-03-18T18:46:43.089Z,9.13
2018-03-18T18:49:09.950Z,11.43
2018-03-18T18:51:36.828Z,12.23
2018-03-18T18:54:02.895Z,10.13
2018-03-18T18:56:28.978Z,10.77
2018-03-18T18:58:55.790Z,11.38
2018-03-18T19:01:21.892Z,8.70
2018-03-18T19:03:47.967Z,10.60
2018-03-18T19:06:14.031Z,9.60
2018-03-18T19:08:40.182Z,9.45
2018-03-18T19:11:07.010Z,11.80
2018-03-18T19:13:33.070Z,11.45
2018-03-18T19:15:59.894Z,9.93
2018-03-18T19:18:25.958Z,9.30
2018-03-18T19:20:52.776Z,8.77
2018-03-18T19:23:18.885Z,9.32
2018-03-18T19:25:44.998Z,9.70
2018-03-18T19:28:11.829Z,9.80
2018-03-18T19:30:37.906Z,9.82
2018-03-18T19:33:04.024Z,9.90
2018-03-18T19:35:30.126Z,11.02
2018-03-18T19:37:56.199Z,10.75
2018-03-18T19:40:23.015Z,7.75
2018-03-18T19:42:49.122Z,10.20
2018-03-18T19:45:15.184Z,9.82
2018-03-18T19:47:42.091Z,11.63
2018-03-18T19:50:08.914Z,10.93
2018-03-18T19:52:35.056Z,8.38
2018-03-18T19:55:01.122Z,10.75
2018-03-18T19:57:27.953Z,11.25
2018-03-18T19:59:54.098Z,10.52
2018-03-18T20:02:20.183Z,9.85
2018-03-18T20:04:46.283Z,11.73
2018-03-18T20:07:12.374Z,9.30
2018-03-18T20:09:40.584Z,10.65
2018-03-18T20:12:06.680Z,10.80
2018-03-18T20:14:32.749Z,11.20
2018-03-18T20:16:58.869Z,10.93
2018-03-18T20:19:24.946Z,10.90
2018-03-18T20:21:51.057Z,11.80
2018-03-18T20:24:17.175Z,15.05
2018-03-18T20:26:43.383Z,9.98
2018-03-18T20:29:10.187Z,10.02
2018-03-18T20:31:36.294Z,11.00
2018-03-18T20:34:02.470Z,10.75
2018-03-18T20:36:28.565Z,11.35
2018-03-18T20:38:54.650Z,10.77
2018-03-18T20:41:20.747Z,10.25
2018-03-18T20:43:46.809Z,10.73
2018-03-18T20:46:12.898Z,10.15
2018-03-18T20:48:39.752Z,9.93
2018-03-18T20:51:05.850Z,8.93
2018-03-18T20:53:31.946Z,8.95
2018-03-18T20:55:58.806Z,11.35
2018-03-18T20:58:25.044Z,9.45
2018-03-18T21:00:51.182Z,9.80
2018-03-18T21:03:18.023Z,9.68
2018-03-18T21:05:44.121Z,9.55
2018-03-18T21:08:10.214Z,8.10
2018-03-18T21:10:36.311Z,7.93
2018-03-18T21:13:02.402Z,9.43
2018-03-18T21:15:28.505Z,8.93
2018-03-18T21:17:54.566Z,9.40
2018-03-18T21:20:20.686Z,8.60
2018-03-18T21:22:46.758Z,10.73
2018-03-18T21:25:12.870Z,9.80
2018-03-18T21:27:39.662Z,8.48
2018-03-18T21:30:05.763Z,8.57
2018-03-18T21:32:32.582Z,8.60
2018-03-18T21:34:58.665Z,12.32
2018-03-18T21:37:24.737Z,10.13
2018-03-18T21:39:51.585Z,12.45
2018-03-18T21:42:17.647Z,9.73
2018-03-18T21:44:43.831Z,10.15
2018-03-18T21:47:09.938Z,10.48
2018-03-18T21:49:35.994Z,13.27
2018-03-18T21:52:02.814Z,11.82
2018-03-18T21:54:28.906Z,11.07
2018-03-18T21:56:54.963Z,12.37
2018-03-18T21:59:21.053Z,11.50
2018-03-18T22:01:47.119Z,13.82
2018-03-18T22:04:13.217Z,11.98
2018-03-18T22:06:39.385Z,9.20
2018-03-18T22:09:06.186Z,14.48
2018-03-18T22:11:32.274Z,14.00
2018-03-18T22:13:59.082Z,16.15
2018-03-18T22:16:25.189Z,13.90
2018-03-18T22:18:51.322Z,10.82
2018-03-18T22:21:17.419Z,13.57
2018-03-18T22:23:43.518Z,10.18
2018-03-18T22:26:09.634Z,18.90
2018-03-18T22:28:35.775Z,14.52
2018-03-18T22:31:01.870Z,11.52
2018-03-18T22:33:27.973Z,20.80
2018-03-18T22:35:54.047Z,20.42
2018-03-18T22:38:20.155Z,22.08
2018-03-18T22:40:46.982Z,16.92
2018-03-18T22:43:13.082Z,26.67
2018-03-18T22:45:39.170Z,22.58
2018-03-18T22:48:05.278Z,20.40
2018-03-18T22:50:32.102Z,17.33
2018-03-18T22:52:58.170Z,15.50
2018-03-18T22:55:25.011Z,11.35
2018-03-18T22:57:51.101Z,10.48
2018-03-18T23:00:17.202Z,9.68
2018-03-18T23:02:45.113Z,11.73
2018-03-18T23:05:11.221Z,11.93
2018-03-18T23:07:38.038Z,12.60
2018-03-18T23:10:04.122Z,10.48
2018-03-18T23:12:30.231Z,11.02
2018-03-18T23:14:56.398Z,10.52
2018-03-18T23:17:22.506Z,12.60
2018-03-18T23:19:48.583Z,10.18
2018-03-18T23:22:14.728Z,10.18
2018-03-18T23:24:40.830Z,10.65
2018-03-18T23:27:07.681Z,9.85
2018-03-18T23:29:33.886Z,10.20
2018-03-18T23:31:59.963Z,10.30
2018-03-18T23:34:26.802Z,10.13
2018-03-18T23:36:53.067Z,11.07
2018-03-18T23:39:19.906Z,8.80
2018-03-18T23:41:46.098Z,10.02
2018-03-18T23:44:12.206Z,9.52
2018-03-18T23:46:39.038Z,11.35
2018-03-18T23:49:05.114Z,10.57
2018-03-18T23:51:31.206Z,10.60
2018-03-18T23:53:57.278Z,9.80
2018-03-18T23:56:24.122Z,8.88
2018-03-18T23:58:51.442Z,8.23
